createdAt,value
2022-11-17T00:02:06.500Z,9.10
2022-11-17T00:04:43.180Z,9.00
2022-11-17T00:07:19.888Z,9.20
2022-11-17T00:09:56.407Z,8.40
2022-11-17T00:16:14.382Z,8.60
2022-11-17T00:19:10.930Z,9.10
2022-11-17T00:21:48.263Z,8.90
2022-11-17T00:24:25.726Z,7.60
2022-11-17T00:27:05.479Z,7.90
2022-11-17T00:29:42.904Z,8.00
2022-11-17T00:32:40.096Z,8.10
2022-11-17T00:35:17.327Z,8.40
2022-11-17T00:38:06.703Z,8.00
2022-11-17T00:40:44.240Z,8.80
2022-11-17T00:43:20.673Z,8.50
2022-11-17T00:48:39.852Z,8.70
2022-11-17T00:51:17.840Z,7.40
2022-11-17T00:53:54.482Z,6.90
2022-11-17T00:56:30.946Z,6.50
2022-11-17T00:59:08.592Z,6.10
2022-11-17T01:01:45.796Z,5.90
2022-11-17T01:04:22.378Z,6.30
2022-11-17T01:06:59.679Z,5.60
2022-11-17T01:09:36.224Z,5.60
2022-11-17T01:12:13.882Z,5.40
2022-11-17T01:14:49.937Z,6.00
2022-11-17T01:17:27.880Z,4.70
2022-11-17T01:20:04.643Z,4.90
2022-11-17T01:22:41.546Z,4.80
2022-11-17T01:25:18.390Z,5.10
2022-11-17T01:27:54.531Z,4.50
2022-11-17T01:30:30.725Z,4.10
2022-11-17T01:33:07.265Z,4.20
2022-11-17T01:35:44.062Z,4.40
2022-11-17T01:38:21.031Z,4.70
2022-11-17T01:40:58.960Z,4.60
2022-11-17T01:43:59.308Z,4.90
2022-11-17T01:46:40.980Z,4.80
2022-11-17T01:49:24.190Z,3.70
2022-11-17T01:52:12.537Z,4.90
2022-11-17T01:54:52.552Z,5.10
2022-11-17T01:57:34.840Z,5.10
2022-11-17T02:00:21.024Z,5.60
2022-11-17T02:02:59.203Z,5.70
2022-11-17T02:05:54.026Z,6.00
2022-11-17T02:08:33.655Z,5.90
2022-11-17T02:11:15.391Z,5.10
2022-11-17T02:13:54.160Z,5.00
2022-11-17T02:16:31.189Z,5.30
2022-11-17T02:19:08.295Z,5.10
2022-11-17T02:22:35.029Z,5.60
2022-11-17T02:25:45.763Z,7.00
2022-11-17T02:28:37.145Z,8.40
2022-11-17T02:31:30.648Z,8.30
2022-11-17T02:34:21.609Z,8.40
2022-11-17T02:37:10.728Z,8.90
2022-11-17T02:39:59.032Z,8.40
2022-11-17T02:42:59.701Z,8.20
2022-11-17T02:45:44.812Z,8.30
2022-11-17T02:48:30.949Z,7.70
2022-11-17T02:51:14.080Z,8.30
2022-11-17T02:53:51.699Z,7.60
2022-11-17T02:56:28.723Z,6.80
2022-11-17T02:59:10.801Z,7.60
2022-11-17T03:02:30.981Z,6.90
2022-11-17T03:05:21.259Z,6.00
2022-11-17T03:08:31.592Z,5.30
2022-11-17T03:11:11.978Z,5.50
2022-11-17T03:13:58.350Z,5.60
2022-11-17T03:16:41.864Z,5.20
2022-11-17T03:19:29.587Z,5.40
2022-11-17T03:22:17.715Z,5.30
2022-11-17T03:25:00.015Z,5.80
2022-11-17T03:27:42.434Z,6.20
2022-11-17T03:30:23.305Z,6.30
2022-11-17T03:33:06.362Z,7.00
2022-11-17T03:35:50.970Z,6.30
2022-11-17T03:38:31.875Z,6.40
2022-11-17T03:41:12.969Z,7.70
2022-11-17T03:43:52.145Z,6.50
2022-11-17T03:46:31.479Z,6.80
2022-11-17T03:49:23.514Z,7.50
2022-11-17T03:52:00.383Z,6.90
2022-11-17T03:54:39.229Z,6.90
2022-11-17T03:57:29.453Z,6.70
2022-11-17T04:00:11.758Z,6.30
2022-11-17T04:02:56.754Z,6.80
2022-11-17T04:05:34.111Z,5.70
2022-11-17T04:08:11.755Z,5.30
2022-11-17T04:11:05.876Z,5.70
2022-11-17T04:13:59.539Z,6.00
2022-11-17T04:16:36.350Z,5.70
2022-11-17T04:19:13.489Z,6.30
2022-11-17T04:21:49.947Z,5.80
2022-11-17T04:24:27.040Z,5.60
2022-11-17T04:27:19.823Z,5.70
2022-11-17T04:29:56.747Z,5.50
2022-11-17T04:32:33.881Z,5.20
2022-11-17T04:35:12.695Z,5.80
2022-11-17T04:37:49.154Z,5.40
2022-11-17T04:40:26.638Z,5.80
2022-11-17T04:43:02.956Z,6.40
2022-11-17T04:45:42.370Z,6.50
2022-11-17T04:48:18.768Z,6.90
2022-11-17T04:50:58.012Z,7.20
2022-11-17T04:53:34.881Z,6.40
2022-11-17T04:56:13.279Z,5.90
2022-11-17T04:58:49.219Z,6.90
2022-11-17T05:01:29.731Z,7.30
2022-11-17T05:04:07.798Z,7.20
2022-11-17T05:06:46.598Z,6.60
2022-11-17T05:09:24.137Z,7.20
2022-11-17T05:12:16.874Z,7.20
2022-11-17T05:14:53.530Z,7.30
2022-11-17T05:17:30.080Z,6.50
2022-11-17T05:20:06.387Z,8.00
2022-11-17T05:23:06.346Z,6.90
2022-11-17T05:25:43.774Z,6.70
2022-11-17T05:28:20.507Z,6.80
2022-11-17T05:30:57.475Z,7.20
2022-11-17T05:33:37.765Z,6.40
2022-11-17T05:36:19.261Z,6.50
2022-11-17T05:38:55.225Z,7.10
2022-11-17T05:41:31.390Z,7.70
2022-11-17T05:44:08.149Z,6.70
2022-11-17T05:46:44.234Z,6.20
2022-11-17T05:49:21.169Z,6.20
2022-11-17T05:51:57.460Z,6.30
2022-11-17T05:54:33.679Z,6.80
2022-11-17T05:57:15.244Z,5.20
2022-11-17T05:59:58.576Z,6.40
2022-11-17T06:02:42.322Z,6.30
2022-11-17T06:05:20.548Z,6.10
2022-11-17T06:07:59.156Z,5.30
2022-11-17T06:10:36.147Z,6.20
2022-11-17T06:13:13.165Z,5.80
2022-11-17T06:15:49.479Z,4.60
2022-11-17T06:18:31.541Z,5.40
2022-11-17T06:21:13.875Z,4.60
2022-11-17T06:23:53.053Z,4.70
2022-11-17T06:26:30.352Z,4.50
2022-11-17T06:29:08.616Z,6.50
2022-11-17T06:31:48.143Z,5.20
2022-11-17T06:34:25.003Z,5.50
2022-11-17T06:37:00.684Z,5.10
2022-11-17T06:39:37.609Z,5.10
2022-11-17T06:42:15.014Z,5.00
2022-11-17T06:44:51.956Z,5.50
2022-11-17T06:47:28.562Z,6.10
2022-11-17T06:50:04.532Z,6.40
2022-11-17T06:52:41.088Z,7.10
2022-11-17T06:55:20.454Z,7.90
2022-11-17T06:58:00.167Z,7.10
2022-11-17T07:00:36.892Z,6.80
2022-11-17T07:03:13.843Z,6.60
2022-11-17T07:05:52.022Z,6.10
2022-11-17T07:08:28.441Z,5.90
2022-11-17T07:11:11.793Z,6.40
2022-11-17T07:13:49.574Z,7.30
2022-11-17T07:16:26.043Z,7.50
2022-11-17T07:19:03.907Z,7.80
2022-11-17T07:21:40.994Z,8.30
2022-11-17T07:24:17.532Z,11.00
2022-11-17T07:26:54.211Z,13.20
2022-11-17T07:29:31.163Z,10.30
2022-11-17T07:32:08.120Z,10.20
2022-11-17T07:34:45.162Z,10.40
2022-11-17T07:37:22.400Z,9.30
2022-11-17T07:39:59.369Z,9.70
2022-11-17T07:42:35.427Z,10.90
2022-11-17T07:45:18.021Z,10.60
2022-11-17T07:48:01.129Z,10.90
2022-11-17T07:50:40.306Z,12.40
2022-11-17T07:53:17.965Z,11.30
2022-11-17T07:55:55.215Z,10.80
2022-11-17T07:58:32.122Z,10.40
2022-11-17T08:01:12.798Z,10.10
2022-11-17T08:03:49.503Z,10.10
2022-11-17T08:06:25.106Z,9.90
2022-11-17T08:09:01.154Z,10.70
2022-11-17T08:11:38.414Z,10.40
2022-11-17T08:14:15.412Z,11.30
2022-11-17T08:16:52.757Z,10.60
2022-11-17T08:19:29.710Z,10.40
2022-11-17T08:22:06.811Z,9.10
2022-11-17T08:24:43.132Z,9.40
2022-11-17T08:27:20.050Z,10.50
2022-11-17T08:29:56.329Z,9.90
2022-11-17T08:32:32.953Z,9.00
2022-11-17T08:35:12.210Z,9.10
2022-11-17T08:37:50.089Z,8.70
2022-11-17T08:40:28.848Z,8.40
2022-11-17T08:43:06.420Z,8.00
2022-11-17T08:45:42.949Z,8.20
2022-11-17T08:48:19.030Z,8.90
2022-11-17T08:50:55.273Z,7.60
2022-11-17T08:53:32.574Z,7.30
2022-11-17T08:56:11.739Z,6.80
2022-11-17T08:58:50.455Z,8.70
2022-11-17T09:01:27.518Z,10.30
2022-11-17T09:04:04.363Z,11.10
2022-11-17T09:06:41.690Z,9.70
2022-11-17T09:09:18.938Z,8.70
2022-11-17T09:11:55.974Z,8.50
2022-11-17T09:14:32.878Z,8.70
2022-11-17T09:17:08.737Z,9.50
2022-11-17T09:19:45.178Z,8.60
2022-11-17T09:22:22.105Z,9.30
2022-11-17T09:24:59.103Z,8.80
2022-11-17T09:27:36.645Z,8.70
2022-11-17T09:30:22.198Z,9.30
2022-11-17T09:33:01.048Z,9.80
2022-11-17T09:35:37.686Z,9.40
2022-11-17T09:38:14.308Z,8.40
2022-11-17T09:40:51.045Z,9.30
2022-11-17T09:43:36.074Z,8.70
2022-11-17T09:46:19.885Z,9.30
2022-11-17T09:49:08.754Z,9.20
2022-11-17T09:51:49.818Z,10.60
2022-11-17T09:54:46.252Z,11.40
2022-11-17T09:57:33.058Z,11.80
2022-11-17T10:00:21.745Z,14.20
2022-11-17T10:02:59.338Z,14.80
2022-11-17T10:05:38.061Z,14.60
2022-11-17T10:08:22.857Z,14.50
2022-11-17T10:10:59.630Z,14.00
2022-11-17T10:13:41.153Z,14.80
2022-11-17T10:16:21.625Z,14.80
2022-11-17T10:18:59.579Z,14.20
2022-11-17T10:21:39.627Z,15.10
2022-11-17T10:24:34.952Z,14.00
2022-11-17T10:27:25.137Z,15.30
2022-11-17T10:30:24.542Z,15.80
2022-11-17T10:33:03.285Z,15.20
2022-11-17T10:35:41.233Z,15.60
2022-11-17T10:38:33.622Z,15.10
2022-11-17T10:41:15.796Z,15.70
2022-11-17T10:44:03.748Z,16.90
2022-11-17T10:47:02.279Z,16.70
2022-11-17T10:49:41.533Z,16.70
2022-11-17T10:52:25.372Z,15.70
2022-11-17T10:55:36.555Z,16.40
2022-11-17T10:58:29.843Z,16.90
2022-11-17T11:01:08.585Z,14.20
2022-11-17T11:03:53.576Z,16.10
2022-11-17T11:06:33.145Z,16.10
2022-11-17T11:09:16.475Z,16.10
2022-11-17T11:11:58.426Z,15.70
2022-11-17T11:14:43.198Z,15.80
2022-11-17T11:17:22.305Z,16.90
2022-11-17T11:20:02.335Z,15.60
2022-11-17T11:22:54.727Z,16.30
2022-11-17T11:25:43.937Z,15.40
2022-11-17T11:28:47.958Z,15.40
2022-11-17T11:31:39.470Z,15.70
2022-11-17T11:34:57.309Z,15.90
2022-11-17T11:37:47.405Z,14.80
2022-11-17T11:40:32.109Z,14.70
2022-11-17T11:43:30.494Z,14.50
2022-11-17T11:46:25.953Z,15.20
2022-11-17T11:49:30.197Z,15.00
2022-11-17T11:52:13.565Z,10.80
2022-11-17T11:54:58.368Z,16.00
2022-11-17T11:57:43.723Z,15.10
2022-11-17T12:00:27.615Z,14.80
2022-11-17T12:03:23.459Z,14.30
2022-11-17T12:06:33.111Z,13.40
2022-11-17T12:09:41.952Z,13.00
2022-11-17T12:12:25.342Z,13.40
2022-11-17T12:15:40.154Z,12.50
2022-11-17T12:18:36.443Z,11.30
2022-11-17T12:21:27.102Z,12.60
2022-11-17T12:24:21.176Z,14.40
2022-11-17T12:27:17.327Z,13.70
2022-11-17T12:29:56.450Z,12.80
2022-11-17T12:32:58.239Z,13.10
2022-11-17T12:35:36.655Z,12.90
2022-11-17T12:38:47.776Z,12.60
2022-11-17T12:42:21.802Z,13.00
2022-11-17T12:45:03.499Z,14.10
2022-11-17T12:47:41.438Z,14.00
2022-11-17T12:53:43.678Z,14.60
2022-11-17T12:56:46.909Z,15.30
2022-11-17T13:00:11.553Z,15.10
2022-11-17T13:03:18.236Z,15.00
2022-11-17T13:09:17.368Z,15.70
2022-11-17T13:12:08.747Z,15.50
2022-11-17T13:15:00.775Z,15.40
2022-11-17T13:17:42.055Z,15.40
2022-11-17T13:20:31.614Z,15.70
2022-11-17T13:23:14.767Z,14.60
2022-11-17T13:25:52.340Z,15.30
2022-11-17T13:28:38.629Z,14.50
2022-11-17T13:31:25.821Z,14.00
2022-11-17T13:34:09.593Z,14.60
2022-11-17T13:37:00.743Z,14.30
2022-11-17T13:39:37.463Z,13.30
2022-11-17T13:42:14.568Z,13.60
2022-11-17T13:44:52.352Z,13.00
2022-11-17T13:47:47.724Z,13.50
2022-11-17T13:50:42.902Z,13.70
2022-11-17T13:53:30.280Z,13.40
2022-11-17T13:56:23.227Z,13.80
2022-11-17T13:58:59.907Z,16.00
2022-11-17T14:01:36.368Z,16.50
2022-11-17T14:04:26.923Z,16.30
2022-11-17T14:07:15.317Z,16.30
2022-11-17T14:10:12.630Z,15.30
2022-11-17T14:12:49.631Z,16.20
2022-11-17T14:15:32.834Z,15.50
2022-11-17T14:18:28.095Z,16.50
2022-11-17T14:21:28.496Z,15.70
2022-11-17T14:24:18.471Z,13.40
2022-11-17T14:26:55.215Z,16.10
2022-11-17T14:29:31.048Z,15.90
2022-11-17T14:32:08.439Z,15.00
2022-11-17T14:34:45.419Z,15.00
2022-11-17T14:37:22.594Z,16.80
2022-11-17T14:40:00.973Z,16.70
2022-11-17T14:42:38.220Z,18.70
2022-11-17T14:45:19.381Z,18.60
2022-11-17T14:47:56.306Z,20.40
2022-11-17T14:50:33.323Z,20.60
2022-11-17T14:53:10.346Z,18.70
2022-11-17T14:55:46.821Z,20.00
2022-11-17T14:58:23.096Z,18.90
2022-11-17T15:00:59.640Z,19.30
2022-11-17T15:03:36.327Z,20.20
2022-11-17T15:06:20.297Z,18.70
2022-11-17T15:09:01.531Z,21.60
2022-11-17T15:11:39.554Z,21.60
2022-11-17T15:14:16.324Z,20.90
2022-11-17T15:16:53.194Z,22.50
2022-11-17T15:19:29.646Z,23.40
2022-11-17T15:22:06.257Z,21.90
2022-11-17T15:24:43.376Z,23.30
2022-11-17T15:27:20.506Z,24.00
2022-11-17T15:29:57.099Z,25.10
2022-11-17T15:32:33.421Z,25.20
2022-11-17T15:35:12.623Z,23.90
2022-11-17T15:37:48.785Z,23.40
2022-11-17T15:40:26.395Z,23.60
2022-11-17T15:43:05.634Z,24.10
2022-11-17T15:45:41.503Z,25.70
2022-11-17T15:48:18.936Z,24.50
2022-11-17T15:51:01.121Z,25.10
2022-11-17T15:53:39.580Z,24.00
2022-11-17T15:56:19.270Z,23.80
2022-11-17T15:59:03.377Z,24.50
2022-11-17T16:01:41.091Z,24.60
2022-11-17T16:04:18.254Z,25.70
2022-11-17T16:06:54.896Z,23.80
2022-11-17T16:09:31.801Z,24.80
2022-11-17T16:12:09.452Z,24.50
2022-11-17T16:14:46.202Z,25.40
2022-11-17T16:17:23.450Z,25.20
2022-11-17T16:20:00.771Z,25.20
2022-11-17T16:22:38.010Z,24.50
2022-11-17T16:25:17.160Z,24.30
2022-11-17T16:27:53.745Z,23.30
2022-11-17T16:30:35.347Z,24.60
2022-11-17T16:33:16.767Z,26.10
2022-11-17T16:35:53.620Z,26.50
2022-11-17T16:38:30.337Z,22.60
2022-11-17T16:41:09.194Z,23.60
2022-11-17T16:43:46.221Z,25.10
2022-11-17T16:46:35.942Z,26.60
2022-11-17T16:49:17.553Z,25.70
2022-11-17T16:51:57.223Z,24.60
2022-11-17T16:54:34.144Z,26.90
2022-11-17T16:57:11.831Z,25.10
2022-11-17T16:59:48.354Z,24.20
2022-11-17T17:02:23.899Z,27.50
2022-11-17T17:05:00.494Z,27.90
2022-11-17T17:07:38.191Z,24.50
2022-11-17T17:10:18.006Z,26.40
2022-11-17T17:12:55.840Z,27.10
2022-11-17T17:15:31.884Z,28.00
2022-11-17T17:18:09.233Z,28.50
2022-11-17T17:20:51.439Z,26.70
2022-11-17T17:23:28.071Z,25.80
2022-11-17T17:26:14.396Z,25.30
2022-11-17T17:28:51.755Z,24.40
2022-11-17T17:31:32.941Z,24.60
2022-11-17T17:34:09.584Z,27.60
2022-11-17T17:36:46.053Z,35.50
2022-11-17T17:39:23.472Z,27.60
2022-11-17T17:42:01.192Z,27.00
2022-11-17T17:44:37.983Z,28.60
2022-11-17T17:47:15.737Z,28.70
2022-11-17T17:49:52.922Z,28.50
2022-11-17T17:52:30.159Z,31.60
2022-11-17T17:55:07.832Z,29.70
2022-11-17T17:57:43.675Z,29.70
2022-11-17T18:00:28.535Z,27.00
2022-11-17T18:03:04.820Z,27.10
2022-11-17T18:05:41.313Z,26.10
2022-11-17T18:08:17.663Z,25.40
2022-11-17T18:10:54.094Z,26.50
2022-11-17T18:13:34.425Z,28.00
2022-11-17T18:16:15.678Z,30.20
2022-11-17T18:18:51.592Z,28.50
2022-11-17T18:21:28.747Z,28.50
2022-11-17T18:24:07.476Z,28.30
2022-11-17T18:26:44.044Z,28.80
2022-11-17T18:29:23.006Z,28.00
2022-11-17T18:32:00.632Z,26.20
2022-11-17T18:34:37.361Z,29.00
2022-11-17T18:37:14.084Z,29.40
2022-11-17T18:39:51.576Z,30.60
2022-11-17T18:42:28.413Z,28.90
2022-11-17T18:45:05.143Z,35.00
2022-11-17T18:47:41.713Z,33.20
2022-11-17T18:50:21.160Z,32.70
2022-11-17T18:52:57.101Z,32.90
2022-11-17T18:55:34.288Z,36.10
2022-11-17T18:58:11.493Z,36.50
2022-11-17T19:00:48.996Z,35.20
2022-11-17T19:03:26.297Z,31.30
2022-11-17T19:06:03.953Z,31.80
2022-11-17T19:08:42.231Z,33.20
2022-11-17T19:11:20.230Z,32.00
2022-11-17T19:13:57.673Z,31.10
2022-11-17T19:16:44.523Z,28.10
2022-11-17T19:19:22.590Z,26.80
2022-11-17T19:22:00.214Z,26.00
2022-11-17T19:24:39.107Z,26.70
2022-11-17T19:27:16.139Z,26.70
2022-11-17T19:29:52.722Z,26.50
2022-11-17T19:32:29.299Z,26.60
2022-11-17T19:35:15.713Z,28.70
2022-11-17T19:37:55.208Z,25.70
2022-11-17T19:40:32.445Z,26.80
2022-11-17T19:43:10.357Z,26.40
2022-11-17T19:45:48.624Z,26.10
2022-11-17T19:48:25.027Z,35.40
2022-11-17T19:51:01.527Z,37.30
2022-11-17T19:53:39.623Z,34.90
2022-11-17T19:56:17.778Z,39.90
2022-11-17T19:59:00.196Z,37.10
2022-11-17T20:01:38.306Z,33.10
2022-11-17T20:04:15.054Z,33.90
2022-11-17T20:06:51.882Z,34.20
2022-11-17T20:09:29.645Z,40.40
2022-11-17T20:12:05.551Z,30.40
2022-11-17T20:14:42.202Z,29.70
2022-11-17T20:17:18.673Z,29.70
2022-11-17T20:19:55.126Z,32.30
2022-11-17T20:22:31.766Z,26.70
2022-11-17T20:25:09.076Z,29.20
2022-11-17T20:27:45.929Z,27.40
2022-11-17T20:30:24.632Z,27.40
2022-11-17T20:33:01.269Z,27.70
2022-11-17T20:35:37.153Z,27.10
2022-11-17T20:38:15.918Z,29.70
2022-11-17T20:40:52.856Z,27.90
2022-11-17T20:43:30.458Z,27.50
2022-11-17T20:46:07.259Z,28.30
2022-11-17T20:48:44.399Z,29.10
2022-11-17T20:51:24.481Z,28.20
2022-11-17T20:54:01.970Z,31.40
2022-11-17T20:56:38.471Z,29.80
2022-11-17T20:59:19.775Z,30.50
2022-11-17T21:01:57.670Z,29.60
2022-11-17T21:04:35.177Z,33.50
2022-11-17T21:07:12.421Z,31.40
2022-11-17T21:09:49.123Z,28.90
2022-11-17T21:12:25.832Z,26.50
2022-11-17T21:15:01.888Z,25.80
2022-11-17T21:17:58.308Z,25.90
2022-11-17T21:20:35.962Z,27.40
2022-11-17T21:23:13.605Z,26.50
2022-11-17T21:25:49.765Z,28.20
2022-11-17T21:28:27.166Z,27.00
2022-11-17T21:31:12.749Z,26.70
2022-11-17T21:33:49.878Z,26.70
2022-11-17T21:36:27.323Z,28.40
2022-11-17T21:39:04.497Z,28.30
2022-11-17T21:41:41.470Z,28.30
2022-11-17T21:44:20.320Z,27.40
2022-11-17T21:46:57.484Z,25.40
2022-11-17T21:49:33.957Z,26.00
2022-11-17T21:52:11.562Z,24.60
2022-11-17T21:54:49.012Z,25.70
2022-11-17T21:57:26.688Z,26.50
2022-11-17T22:00:04.366Z,25.30
2022-11-17T22:02:42.099Z,26.10
2022-11-17T22:05:19.427Z,26.10
2022-11-17T22:07:56.019Z,26.50
2022-11-17T22:10:33.154Z,36.70
2022-11-17T22:13:10.213Z,31.40
2022-11-17T22:15:47.794Z,31.90
2022-11-17T22:18:24.737Z,29.30
2022-11-17T22:21:01.223Z,26.00
2022-11-17T22:23:37.165Z,26.50
2022-11-17T22:26:15.804Z,24.60
2022-11-17T22:28:55.302Z,23.80
2022-11-17T22:31:31.348Z,26.10
2022-11-17T22:34:09.635Z,23.20
2022-11-17T22:36:47.449Z,25.70
2022-11-17T22:39:25.179Z,25.40
2022-11-17T22:42:02.010Z,23.60
2022-11-17T22:44:39.360Z,25.00
2022-11-17T22:47:15.988Z,22.10
2022-11-17T22:49:52.586Z,24.00
2022-11-17T22:52:30.224Z,23.70
2022-11-17T22:55:07.348Z,25.10
2022-11-17T22:57:45.146Z,24.60
2022-11-17T23:00:27.160Z,23.70
2022-11-17T23:03:04.946Z,25.60
2022-11-17T23:05:42.168Z,23.70
2022-11-17T23:08:19.672Z,24.20
2022-11-17T23:11:29.592Z,26.60
2022-11-17T23:13:58.356Z,23.60
2022-11-17T23:16:35.290Z,23.30
2022-11-17T23:19:13.506Z,25.00
2022-11-17T23:21:49.080Z,24.70
2022-11-17T23:24:26.558Z,24.20
2022-11-17T23:27:03.900Z,24.50
2022-11-17T23:29:41.141Z,23.70
2022-11-17T23:32:17.606Z,23.90
2022-11-17T23:34:53.783Z,24.00
2022-11-17T23:37:31.408Z,25.00
2022-11-17T23:40:09.758Z,24.90
2022-11-17T23:42:46.240Z,24.90
2022-11-17T23:45:22.835Z,22.80
2022-11-17T23:47:59.530Z,23.60
2022-11-17T23:50:35.612Z,22.90
2022-11-17T23:53:12.347Z,22.50
2022-11-17T23:55:55.421Z,23.30
2022-11-17T23:58:32.873Z,23.80
